Time;durP1;ratioP1;P1;durP2;ratioP2;P2;SDS_P1;SDS_P2;PMS_P1;PMS_P2;Temp;Humidity;BMP_temperature;BMP_pressure;BME280_temperature;BME280_humidity;BME280_pressure;Samples;Min_cycle;Max_cycle;Signal;HPM_P1;HPM_P2
2023/07/15 00:00:07;;;;;;;6.75;3.25;;;;;;;;;;5008340;28;20025;-76
2023/07/15 00:02:33;;;;;;;3.58;3.28;;;;;;;;;;5007750;28;20621;-76
2023/07/15 00:04:58;;;;;;;5.18;3.10;;;;;;;;;;5007448;28;20053;-76
2023/07/15 00:07:24;;;;;;;7.45;3.15;;;;;;;;;;5007221;28;20079;-76
2023/07/15 00:09:49;;;;;;;6.15;2.88;;;;;;;;;;5007647;28;20034;-76
2023/07/15 00:12:15;;;;;;;3.28;2.97;;;;;;;;;;5007470;28;20033;-76
2023/07/15 00:14:40;;;;;;;3.15;2.95;;;;;;;;;;5008196;28;20416;-76
2023/07/15 00:17:06;;;;;;;6.22;2.90;;;;;;;;;;5007595;28;20030;-76
2023/07/15 00:19:33;;;;;;;4.20;2.90;;;;;;;;;;5008039;28;20367;-76
2023/07/15 00:21:58;;;;;;;3.13;2.83;;;;;;;;;;5007285;28;20049;-76
2023/07/15 00:24:23;;;;;;;2.90;2.55;;;;;;;;;;5007923;28;20018;-76
2023/07/15 00:26:49;;;;;;;5.07;2.58;;;;;;;;;;5007638;28;20470;-76
2023/07/15 00:29:16;;;;;;;5.50;2.92;;;;;;;;;;5007058;28;20108;-76
2023/07/15 00:31:43;;;;;;;5.82;3.03;;;;;;;;;;5006897;28;20515;-76
2023/07/15 00:34:09;;;;;;;7.43;2.90;;;;;;;;;;5007814;28;20069;-76
2023/07/15 00:36:35;;;;;;;2.78;2.47;;;;;;;;;;5007912;28;20076;-76
2023/07/15 00:39:00;;;;;;;3.15;2.90;;;;;;;;;;5006344;28;20036;-75
2023/07/15 00:41:28;;;;;;;3.17;2.88;;;;;;;;;;5009276;28;20026;-76
2023/07/15 00:44:05;;;;;;;3.42;2.80;;;;;;;;;;5011816;28;20018;-78
2023/07/15 00:46:49;;;;;;;4.13;2.58;;;;;;;;;;5006442;28;20030;-77
2023/07/15 00:49:29;;;;;;;2.90;2.60;;;;;;;;;;5007495;28;20018;-77
2023/07/15 00:52:05;;;;;;;5.40;2.50;;;;;;;;;;5005290;28;20775;-78
2023/07/15 00:54:33;;;;;;;3.20;2.90;;;;;;;;;;5007143;28;20026;-77
2023/07/15 00:57:00;;;;;;;4.50;2.72;;;;;;;;;;5007046;28;20417;-77
2023/07/15 00:59:26;;;;;;;5.75;2.67;;;;;;;;;;5007490;28;20445;-77
2023/07/15 01:01:53;;;;;;;4.65;2.78;;;;;;;;;;5006930;28;20109;-78
2023/07/15 01:04:20;;;;;;;5.22;2.83;;;;;;;;;;5005971;28;20014;-78
2023/07/15 01:06:46;;;;;;;4.63;2.88;;;;;;;;;;5023146;28;20025;-77
2023/07/15 01:09:12;;;;;;;2.72;2.53;;;;;;;;;;5007928;28;20018;-77
2023/07/15 01:11:39;;;;;;;5.38;2.70;;;;;;;;;;5009214;28;20033;-77
2023/07/15 01:14:05;;;;;;;6.32;3.35;;;;;;;;;;5014205;28;20026;-78
2023/07/15 01:16:32;;;;;;;2.80;2.60;;;;;;;;;;5015635;28;20025;-78
2023/07/15 01:18:57;;;;;;;3.00;2.80;;;;;;;;;;5014865;28;20057;-77
2023/07/15 01:21:24;;;;;;;5.20;2.85;;;;;;;;;;5014632;28;20025;-78
2023/07/15 01:23:49;;;;;;;3.03;2.58;;;;;;;;;;5013244;28;20022;-77
2023/07/15 01:26:14;;;;;;;2.83;2.47;;;;;;;;;;5014538;28;20569;-76
2023/07/15 01:28:39;;;;;;;6.78;3.10;;;;;;;;;;5013848;28;20032;-76
2023/07/15 01:31:05;;;;;;;3.20;2.72;;;;;;;;;;5014439;28;20064;-77
2023/07/15 01:33:31;;;;;;;3.30;3.00;;;;;;;;;;5014720;28;20034;-76
2023/07/15 01:35:56;;;;;;;3.35;3.03;;;;;;;;;;5014125;28;20018;-76
2023/07/15 01:38:22;;;;;;;3.55;2.78;;;;;;;;;;5014131;28;20040;-77
2023/07/15 01:40:47;;;;;;;3.53;3.10;;;;;;;;;;5014336;28;20386;-78
2023/07/15 01:43:13;;;;;;;3.08;2.65;;;;;;;;;;5014071;28;20105;-76
2023/07/15 01:45:39;;;;;;;3.45;2.85;;;;;;;;;;5014335;28;20018;-78
2023/07/15 01:48:08;;;;;;;6.57;3.00;;;;;;;;;;5014276;28;20028;-76
2023/07/15 01:50:34;;;;;;;4.50;3.05;;;;;;;;;;5014305;28;20032;-78
2023/07/15 01:52:59;;;;;;;3.50;3.20;;;;;;;;;;5012860;28;20371;-78
2023/07/15 01:55:25;;;;;;;3.13;2.83;;;;;;;;;;5012886;28;20021;-76
2023/07/15 01:57:50;;;;;;;5.63;3.30;;;;;;;;;;5013798;28;20030;-78
2023/07/15 02:00:16;;;;;;;3.33;3.03;;;;;;;;;;5012440;28;20509;-77
2023/07/15 02:02:42;;;;;;;3.30;3.00;;;;;;;;;;5012244;28;20021;-77
2023/07/15 02:05:08;;;;;;;3.35;2.70;;;;;;;;;;5010817;28;20036;-76
2023/07/15 02:07:33;;;;;;;7.28;3.53;;;;;;;;;;5011097;28;20102;-76
2023/07/15 02:09:58;;;;;;;5.75;3.05;;;;;;;;;;5008720;28;20088;-76
2023/07/15 02:12:23;;;;;;;3.45;3.10;;;;;;;;;;5010116;28;20573;-74
2023/07/15 02:14:49;;;;;;;3.65;3.30;;;;;;;;;;5010484;28;20018;-76
2023/07/15 02:17:17;;;;;;;3.17;2.88;;;;;;;;;;5008798;28;20049;-76
2023/07/15 02:19:43;;;;;;;4.13;3.20;;;;;;;;;;5010221;28;20504;-74
2023/07/15 02:22:09;;;;;;;3.28;2.97;;;;;;;;;;5010487;28;20026;-76
2023/07/15 02:24:34;;;;;;;3.15;2.95;;;;;;;;;;5008875;28;20394;-77
2023/07/15 02:26:59;;;;;;;4.82;2.78;;;;;;;;;;5010732;28;20033;-76
2023/07/15 02:29:24;;;;;;;4.38;3.28;;;;;;;;;;5010412;28;20075;-78
2023/07/15 02:31:50;;;;;;;3.60;3.30;;;;;;;;;;5009341;28;20053;-77
2023/07/15 02:34:16;;;;;;;3.75;3.13;;;;;;;;;;5009471;28;20394;-77
2023/07/15 02:36:42;;;;;;;4.75;3.00;;;;;;;;;;5009827;28;20022;-76
2023/07/15 02:39:08;;;;;;;6.45;3.05;;;;;;;;;;5009981;28;20399;-77
2023/07/15 02:41:33;;;;;;;5.25;3.40;;;;;;;;;;5009999;28;20018;-76
2023/07/15 02:43:59;;;;;;;3.58;3.28;;;;;;;;;;5010386;28;20084;-77
2023/07/15 02:46:25;;;;;;;3.50;2.80;;;;;;;;;;5009907;28;20433;-75
2023/07/15 02:48:50;;;;;;;3.22;2.95;;;;;;;;;;5010418;28;20088;-76
2023/07/15 02:51:16;;;;;;;3.50;2.88;;;;;;;;;;5010681;28;20034;-75
2023/07/15 02:53:43;;;;;;;3.55;3.25;;;;;;;;;;5014441;28;20029;-76
2023/07/15 02:56:09;;;;;;;6.65;3.03;;;;;;;;;;5012461;28;20030;-76
2023/07/15 02:58:34;;;;;;;3.17;2.90;;;;;;;;;;5013991;28;20080;-75
2023/07/15 03:00:59;;;;;;;7.57;2.92;;;;;;;;;;5014048;28;20028;-76
2023/07/15 03:03:25;;;;;;;4.55;3.30;;;;;;;;;;5014133;28;20056;-76
2023/07/15 03:05:51;;;;;;;3.78;3.13;;;;;;;;;;5013597;28;20485;-74
2023/07/15 03:08:16;;;;;;;4.18;3.00;;;;;;;;;;5014722;28;20062;-75
2023/07/15 03:10:43;;;;;;;3.45;2.95;;;;;;;;;;5013513;28;20402;-76
2023/07/15 03:13:08;;;;;;;3.15;2.80;;;;;;;;;;5013802;28;20044;-76
2023/07/15 03:15:35;;;;;;;3.67;3.10;;;;;;;;;;5013580;28;20486;-76
2023/07/15 03:18:02;;;;;;;3.42;3.05;;;;;;;;;;5014802;28;20018;-77
2023/07/15 03:20:27;;;;;;;3.92;3.00;;;;;;;;;;5014278;28;20227;-76
2023/07/15 03:22:54;;;;;;;3.20;2.90;;;;;;;;;;5013395;28;20105;-77
2023/07/15 03:25:20;;;;;;;3.60;3.13;;;;;;;;;;5015520;28;20034;-75
2023/07/15 03:27:46;;;;;;;5.85;3.28;;;;;;;;;;5014756;28;20022;-77
2023/07/15 03:30:12;;;;;;;5.15;3.22;;;;;;;;;;5015163;28;20052;-77
2023/07/15 03:32:38;;;;;;;3.55;3.25;;;;;;;;;;5014791;28;20057;-77
2023/07/15 03:35:04;;;;;;;3.55;3.25;;;;;;;;;;5014837;28;20562;-75
2023/07/15 03:37:31;;;;;;;4.43;3.40;;;;;;;;;;5013789;28;20053;-77
2023/07/15 03:39:56;;;;;;;4.15;3.35;;;;;;;;;;5014077;28;20094;-77
2023/07/15 03:42:22;;;;;;;5.50;3.67;;;;;;;;;;5014426;28;20052;-77
2023/07/15 03:44:47;;;;;;;19.05;3.45;;;;;;;;;;5014010;28;20083;-76
2023/07/15 03:47:12;;;;;;;5.70;3.60;;;;;;;;;;5013052;28;20101;-75
2023/07/15 03:49:38;;;;;;;3.88;3.58;;;;;;;;;;5032450;23;20048;-79
2023/07/15 03:52:03;;;;;;;5.07;3.35;;;;;;;;;;5019427;28;20026;-79
2023/07/15 03:54:29;;;;;;;4.93;3.15;;;;;;;;;;5013131;28;20078;-79
2023/07/15 03:56:54;;;;;;;5.80;3.10;;;;;;;;;;4983925;28;20026;-78
2023/07/15 03:59:19;;;;;;;5.75;3.30;;;;;;;;;;5016478;28;20030;-79
2023/07/15 04:01:45;;;;;;;4.90;3.30;;;;;;;;;;5005019;28;20049;-80
2023/07/15 04:04:11;;;;;;;3.67;2.88;;;;;;;;;;5005192;28;20045;-80
2023/07/15 04:06:37;;;;;;;6.55;3.17;;;;;;;;;;5005118;28;20042;-80
2023/07/15 04:09:05;;;;;;;5.60;2.90;;;;;;;;;;5006419;28;20030;-80
2023/07/15 04:11:32;;;;;;;3.92;2.90;;;;;;;;;;5014731;28;20026;-80
2023/07/15 04:13:58;;;;;;;3.58;2.30;;;;;;;;;;5024950;28;20052;-81
2023/07/15 04:16:23;;;;;;;2.70;2.50;;;;;;;;;;5007350;28;20035;-80
2023/07/15 04:18:48;;;;;;;4.43;2.20;;;;;;;;;;5004560;28;20029;-80
2023/07/15 04:21:13;;;;;;;3.10;2.60;;;;;;;;;;5004594;28;20038;-80
2023/07/15 04:23:39;;;;;;;3.38;2.10;;;;;;;;;;5004869;28;20022;-81
2023/07/15 04:26:07;;;;;;;2.83;2.40;;;;;;;;;;5018589;28;20030;-80
2023/07/15 04:28:33;;;;;;;4.20;2.78;;;;;;;;;;5025518;28;20030;-81
2023/07/15 04:30:58;;;;;;;2.70;2.40;;;;;;;;;;5017571;28;20033;-80
2023/07/15 04:33:24;;;;;;;2.90;2.70;;;;;;;;;;5024627;28;20018;-80
2023/07/15 04:35:50;;;;;;;2.63;2.30;;;;;;;;;;5026693;28;20385;-80
2023/07/15 04:38:15;;;;;;;2.97;2.67;;;;;;;;;;5026032;28;20030;-79
2023/07/15 04:40:40;;;;;;;3.08;2.47;;;;;;;;;;5023631;28;20105;-80
2023/07/15 04:43:06;;;;;;;2.72;2.50;;;;;;;;;;5019773;28;20066;-79
2023/07/15 04:45:32;;;;;;;4.25;2.47;;;;;;;;;;5006845;28;20026;-79
2023/07/15 04:47:58;;;;;;;3.65;2.75;;;;;;;;;;4986667;28;20434;-81
2023/07/15 04:50:23;;;;;;;7.97;2.38;;;;;;;;;;5007310;28;20516;-81
2023/07/15 04:52:49;;;;;;;2.28;2.08;;;;;;;;;;5024522;28;20097;-79
2023/07/15 04:55:15;;;;;;;2.45;2.13;;;;;;;;;;5037137;28;20036;-80
2023/07/15 04:57:41;;;;;;;2.40;2.20;;;;;;;;;;5021209;28;20026;-80
2023/07/15 05:00:10;;;;;;;3.47;2.40;;;;;;;;;;5023184;28;20057;-80
2023/07/15 05:02:39;;;;;;;2.35;2.15;;;;;;;;;;5022234;28;20017;-79
2023/07/15 05:05:05;;;;;;;2.78;2.35;;;;;;;;;;5014093;28;20106;-80
2023/07/15 05:07:32;;;;;;;3.28;2.20;;;;;;;;;;5004547;28;20017;-80
2023/07/15 05:09:58;;;;;;;2.60;2.00;;;;;;;;;;5003992;28;20026;-80
2023/07/15 05:12:24;;;;;;;2.40;2.20;;;;;;;;;;5010802;28;20029;-79
2023/07/15 05:14:49;;;;;;;2.42;2.22;;;;;;;;;;5010387;28;20088;-78
2023/07/15 05:17:15;;;;;;;5.60;2.35;;;;;;;;;;5003424;28;20509;-80
2023/07/15 05:19:40;;;;;;;4.53;2.08;;;;;;;;;;5018841;28;20482;-80
2023/07/15 05:22:06;;;;;;;2.40;2.05;;;;;;;;;;5018544;28;20482;-80
2023/07/15 05:24:32;;;;;;;2.35;2.15;;;;;;;;;;5018547;28;20018;-80
2023/07/15 05:26:57;;;;;;;3.08;2.10;;;;;;;;;;5019208;28;20026;-80
2023/07/15 05:29:23;;;;;;;4.10;2.15;;;;;;;;;;5005223;28;20102;-80
2023/07/15 05:31:48;;;;;;;2.30;2.00;;;;;;;;;;5015980;28;20096;-79
2023/07/15 05:34:14;;;;;;;1.98;1.88;;;;;;;;;;5018972;28;20026;-79
2023/07/15 05:36:39;;;;;;;2.20;2.00;;;;;;;;;;5008744;28;20029;-81
2023/07/15 05:39:05;;;;;;;2.10;1.90;;;;;;;;;;5034742;28;20033;-79
2023/07/15 05:41:30;;;;;;;4.03;2.28;;;;;;;;;;5023474;28;20056;-79
2023/07/15 05:43:55;;;;;;;1.85;1.65;;;;;;;;;;5015020;28;20105;-79
2023/07/15 05:46:21;;;;;;;3.15;2.10;;;;;;;;;;5035287;28;20025;-81
2023/07/15 05:48:46;;;;;;;2.00;1.90;;;;;;;;;;5007024;28;20034;-80
2023/07/15 05:51:12;;;;;;;2.85;2.05;;;;;;;;;;5025588;28;20022;-82
2023/07/15 05:53:38;;;;;;;1.98;1.73;;;;;;;;;;5017745;28;20062;-80
2023/07/15 05:56:03;;;;;;;3.53;1.70;;;;;;;;;;5003345;28;20022;-79
2023/07/15 05:58:29;;;;;;;2.58;1.98;;;;;;;;;;5019251;28;20478;-80
2023/07/15 06:00:54;;;;;;;2.03;1.83;;;;;;;;;;5003549;28;20026;-80
2023/07/15 06:03:19;;;;;;;3.10;2.13;;;;;;;;;;5004320;28;20051;-80
2023/07/15 06:05:45;;;;;;;1.83;1.73;;;;;;;;;;5003624;28;20034;-79
2023/07/15 06:08:11;;;;;;;4.40;2.03;;;;;;;;;;5004458;28;20030;-79
2023/07/15 06:10:53;;;;;;;1.70;1.60;;;;;;;;;;5004155;28;20498;-81
2023/07/15 06:13:19;;;;;;;4.65;1.83;;;;;;;;;;5019220;28;20026;-79
2023/07/15 06:15:49;;;;;;;2.22;2.03;;;;;;;;;;5004899;28;20050;-81
2023/07/15 06:18:15;;;;;;;2.22;1.77;;;;;;;;;;5003656;28;20539;-80
2023/07/15 06:20:41;;;;;;;3.00;2.80;;;;;;;;;;5020786;28;20030;-80
2023/07/15 06:23:06;;;;;;;2.70;1.88;;;;;;;;;;5024343;28;20029;-81
2023/07/15 06:25:31;;;;;;;3.83;1.92;;;;;;;;;;5005384;28;20034;-80
2023/07/15 06:27:57;;;;;;;2.10;1.73;;;;;;;;;;5004305;28;20061;-80
2023/07/15 06:30:22;;;;;;;3.22;2.03;;;;;;;;;;5019070;28;20053;-81
2023/07/15 06:32:49;;;;;;;2.88;2.10;;;;;;;;;;5011076;28;20086;-80
2023/07/15 06:35:17;;;;;;;1.90;1.80;;;;;;;;;;5018571;28;20365;-80
2023/07/15 06:37:49;;;;;;;4.47;1.90;;;;;;;;;;5003154;28;20065;-80
2023/07/15 06:40:18;;;;;;;2.20;2.00;;;;;;;;;;5018192;28;20037;-79
2023/07/15 06:42:46;;;;;;;2.20;2.00;;;;;;;;;;5004011;28;20014;-78
2023/07/15 06:45:13;;;;;;;7.22;2.13;;;;;;;;;;5003909;28;20018;-81
2023/07/15 06:47:38;;;;;;;2.95;2.00;;;;;;;;;;5003459;28;20022;-81
2023/07/15 06:50:05;;;;;;;2.42;1.90;;;;;;;;;;5018538;28;20084;-79
2023/07/15 06:52:30;;;;;;;2.00;1.90;;;;;;;;;;5003572;28;20022;-80
2023/07/15 06:54:56;;;;;;;3.00;2.13;;;;;;;;;;5003841;28;20023;-79
2023/07/15 06:57:21;;;;;;;1.95;1.83;;;;;;;;;;5002647;28;20034;-79
2023/07/15 06:59:47;;;;;;;3.22;1.90;;;;;;;;;;5018457;28;20026;-80
2023/07/15 07:02:13;;;;;;;2.00;1.90;;;;;;;;;;5018275;28;20038;-79
2023/07/15 07:04:38;;;;;;;4.18;2.13;;;;;;;;;;5001311;28;20023;-80
2023/07/15 07:07:03;;;;;;;2.13;2.03;;;;;;;;;;5002238;28;20057;-81
2023/07/15 07:09:28;;;;;;;4.03;1.90;;;;;;;;;;5018148;28;20033;-81
2023/07/15 07:11:54;;;;;;;2.13;1.95;;;;;;;;;;5002197;28;20548;-80
2023/07/15 07:14:19;;;;;;;2.10;1.90;;;;;;;;;;5017392;28;20038;-80
2023/07/15 07:16:45;;;;;;;2.33;2.13;;;;;;;;;;5001572;28;20082;-81
2023/07/15 07:19:10;;;;;;;2.40;2.20;;;;;;;;;;5001178;28;20443;-81
2023/07/15 07:21:36;;;;;;;2.05;1.90;;;;;;;;;;5001041;28;20304;-80
2023/07/15 07:24:01;;;;;;;4.28;2.35;;;;;;;;;;5002384;28;20018;-81
2023/07/15 07:26:27;;;;;;;3.08;2.20;;;;;;;;;;5001658;28;20026;-81
2023/07/15 07:28:52;;;;;;;3.55;2.40;;;;;;;;;;5001168;28;20026;-79
2023/07/15 07:31:18;;;;;;;4.00;2.60;;;;;;;;;;5001715;28;20026;-78
2023/07/15 07:33:44;;;;;;;2.63;2.40;;;;;;;;;;5016914;28;20026;-79
2023/07/15 07:36:09;;;;;;;5.32;2.67;;;;;;;;;;5002521;28;20085;-80
2023/07/15 07:38:35;;;;;;;2.72;2.50;;;;;;;;;;5018142;28;20028;-80
2023/07/15 07:41:18;;;;;;;3.92;3.10;;;;;;;;;;5005230;28;20457;-80
2023/07/15 07:43:44;;;;;;;6.00;3.50;;;;;;;;;;5005452;28;20398;-80
2023/07/15 07:46:12;;;;;;;2.47;2.00;;;;;;;;;;5004522;28;20031;-80
2023/07/15 07:48:38;;;;;;;2.00;1.80;;;;;;;;;;5020883;28;20030;-80
2023/07/15 07:51:03;;;;;;;2.00;1.80;;;;;;;;;;5005758;28;20014;-79
2023/07/15 07:53:29;;;;;;;1.73;1.63;;;;;;;;;;5010477;28;20041;-80
2023/07/15 07:55:54;;;;;;;2.00;1.80;;;;;;;;;;5026359;28;20378;-80
2023/07/15 07:58:20;;;;;;;1.98;1.70;;;;;;;;;;5025591;28;20084;-80
2023/07/15 08:00:48;;;;;;;1.83;1.73;;;;;;;;;;5026235;28;20037;-81
2023/07/15 08:03:14;;;;;;;2.90;1.92;;;;;;;;;;5022555;28;20026;-80
2023/07/15 08:05:45;;;;;;;6.70;1.90;;;;;;;;;;5021441;28;20028;-81
2023/07/15 08:08:11;;;;;;;1.90;1.80;;;;;;;;;;5005700;28;20026;-80
2023/07/15 08:10:37;;;;;;;3.92;1.67;;;;;;;;;;5021179;28;20089;-80
2023/07/15 08:13:03;;;;;;;5.68;1.92;;;;;;;;;;4999551;28;20037;-81
2023/07/15 08:15:29;;;;;;;2.25;2.05;;;;;;;;;;5006224;28;20072;-81
2023/07/15 08:17:55;;;;;;;4.22;2.08;;;;;;;;;;5030373;28;20105;-80
2023/07/15 08:20:21;;;;;;;1.90;1.80;;;;;;;;;;5014491;23;20083;-82
2023/07/15 08:22:46;;;;;;;1.90;1.80;;;;;;;;;;4993332;28;20486;-85
2023/07/15 08:25:11;;;;;;;2.33;2.17;;;;;;;;;;4974776;28;20041;-85
2023/07/15 08:27:37;;;;;;;5.00;2.10;;;;;;;;;;4980657;28;20536;-85
2023/07/15 08:30:03;;;;;;;2.83;2.10;;;;;;;;;;4987841;28;20247;-84
2023/07/15 08:32:32;;;;;;;3.15;2.05;;;;;;;;;;5017025;28;20026;-83
2023/07/15 08:34:57;;;;;;;4.90;2.25;;;;;;;;;;4986985;28;20110;-82
2023/07/15 08:37:23;;;;;;;4.95;2.42;;;;;;;;;;5024502;28;20030;-80
2023/07/15 08:39:48;;;;;;;1.98;1.88;;;;;;;;;;4989257;28;20046;-84
2023/07/15 08:42:14;;;;;;;2.15;1.80;;;;;;;;;;4985970;28;20374;-81
2023/07/15 08:44:40;;;;;;;2.80;2.00;;;;;;;;;;4998393;28;20502;-86
2023/07/15 08:47:07;;;;;;;2.25;1.70;;;;;;;;;;4990229;28;20031;-82
2023/07/15 08:49:37;;;;;;;2.35;2.10;;;;;;;;;;4997992;28;20034;-82
2023/07/15 08:52:04;;;;;;;2.20;2.00;;;;;;;;;;5000095;28;20090;-84
2023/07/15 08:54:31;;;;;;;3.38;2.30;;;;;;;;;;4995135;28;20023;-82
2023/07/15 09:01:59;;;;;;;5.35;1.90;;;;;;;;;;5003744;28;20046;-83
2023/07/15 09:04:29;;;;;;;6.43;2.70;;;;;;;;;;5011269;28;20074;-85
2023/07/15 09:06:55;;;;;;;2.20;2.00;;;;;;;;;;5002234;28;20037;-83
2023/07/15 09:09:34;;;;;;;3.80;2.05;;;;;;;;;;5005308;28;20037;-80
2023/07/15 09:12:03;;;;;;;3.13;1.77;;;;;;;;;;5007773;28;20025;-82
2023/07/15 09:14:29;;;;;;;4.50;2.08;;;;;;;;;;5026921;28;20113;-83
2023/07/15 09:16:57;;;;;;;3.58;2.63;;;;;;;;;;5002752;28;20042;-82
2023/07/15 09:19:24;;;;;;;2.53;2.30;;;;;;;;;;4998807;28;20678;-84
2023/07/15 09:22:08;;;;;;;2.78;2.20;;;;;;;;;;4999157;28;20033;-85
2023/07/15 09:24:37;;;;;;;2.35;1.95;;;;;;;;;;5021092;28;20069;-85
2023/07/15 09:27:03;;;;;;;2.50;2.20;;;;;;;;;;5004371;28;20030;-85
2023/07/15 09:29:29;;;;;;;2.40;2.20;;;;;;;;;;5014788;28;20283;-86
2023/07/15 09:31:55;;;;;;;2.10;2.00;;;;;;;;;;4995717;28;20045;-82
2023/07/15 09:34:20;;;;;;;2.40;2.20;;;;;;;;;;4997105;28;20019;-85
2023/07/15 09:36:46;;;;;;;4.32;2.45;;;;;;;;;;4997696;28;20029;-82
2023/07/15 09:39:13;;;;;;;6.43;2.20;;;;;;;;;;5002723;28;20025;-85
2023/07/15 09:41:38;;;;;;;4.32;2.47;;;;;;;;;;4993884;28;20530;-83
2023/07/15 09:44:10;;;;;;;4.35;2.28;;;;;;;;;;5000125;28;20060;-84
2023/07/15 09:46:35;;;;;;;2.90;2.10;;;;;;;;;;5007703;28;20370;-85
2023/07/15 09:49:01;;;;;;;6.00;2.17;;;;;;;;;;5015506;23;20108;-73
2023/07/15 09:51:26;;;;;;;3.28;2.08;;;;;;;;;;5008679;28;20546;-73
2023/07/15 09:53:54;;;;;;;2.17;1.73;;;;;;;;;;5014296;28;20029;-73
2023/07/15 09:56:26;;;;;;;3.20;2.28;;;;;;;;;;5006554;28;20034;-73
2023/07/15 09:58:55;;;;;;;1.70;1.60;;;;;;;;;;5017050;28;20034;-73
2023/07/15 10:01:40;;;;;;;2.95;2.10;;;;;;;;;;5018547;28;20018;-73
2023/07/15 10:04:25;;;;;;;3.75;1.80;;;;;;;;;;5009764;28;20022;-73
2023/07/15 10:06:54;;;;;;;6.07;1.85;;;;;;;;;;5012140;28;20105;-73
2023/07/15 10:09:21;;;;;;;1.70;1.60;;;;;;;;;;5009653;28;20014;-73
2023/07/15 10:11:48;;;;;;;4.15;2.13;;;;;;;;;;5014078;28;20060;-73
2023/07/15 10:14:14;;;;;;;1.98;1.75;;;;;;;;;;4995924;28;20022;-73
2023/07/15 10:16:40;;;;;;;2.35;1.65;;;;;;;;;;5008749;28;20535;-73
2023/07/15 10:19:37;;;;;;;2.28;2.08;;;;;;;;;;5011024;28;20161;-73
2023/07/15 10:22:03;;;;;;;2.45;1.90;;;;;;;;;;5009121;28;20109;-73
2023/07/15 10:24:30;;;;;;;2.17;1.70;;;;;;;;;;5015972;28;20093;-73
2023/07/15 10:26:55;;;;;;;2.70;2.20;;;;;;;;;;5011279;28;20114;-73
2023/07/15 10:29:23;;;;;;;1.98;1.88;;;;;;;;;;5013155;28;20109;-73
2023/07/15 10:32:15;;;;;;;1.95;1.67;;;;;;;;;;5002901;28;20025;-73
2023/07/15 10:34:51;;;;;;;1.98;1.80;;;;;;;;;;5010803;28;20024;-73
2023/07/15 10:37:18;;;;;;;4.85;1.83;;;;;;;;;;5005082;28;20046;-73
2023/07/15 10:39:45;;;;;;;7.07;2.10;;;;;;;;;;5015073;28;20018;-73
2023/07/15 10:42:12;;;;;;;6.68;1.95;;;;;;;;;;5011293;28;20120;-73
2023/07/15 10:44:46;;;;;;;2.40;2.20;;;;;;;;;;5017972;28;20029;-76
2023/07/15 10:47:15;;;;;;;2.40;1.77;;;;;;;;;;5017797;28;20026;-72
2023/07/15 10:49:41;;;;;;;5.32;1.75;;;;;;;;;;5008787;28;20401;-72
2023/07/15 10:52:06;;;;;;;3.15;2.03;;;;;;;;;;5018200;28;20098;-73
2023/07/15 10:54:36;;;;;;;1.80;1.70;;;;;;;;;;5013818;28;20035;-72
2023/07/15 10:57:12;;;;;;;3.17;1.80;;;;;;;;;;5018217;28;20030;-73
2023/07/15 10:59:40;;;;;;;2.45;2.03;;;;;;;;;;5008349;28;20026;-73
2023/07/15 11:02:05;;;;;;;2.17;1.88;;;;;;;;;;5008193;28;20048;-73
2023/07/15 11:04:31;;;;;;;2.47;2.03;;;;;;;;;;5007354;28;20026;-73
2023/07/15 11:07:07;;;;;;;2.20;2.00;;;;;;;;;;5008307;28;20025;-75
2023/07/15 11:09:36;;;;;;;2.13;2.03;;;;;;;;;;5009639;28;20038;-76
2023/07/15 11:12:05;;;;;;;3.03;1.90;;;;;;;;;;4999379;28;20030;-73
2023/07/15 11:14:31;;;;;;;2.72;2.00;;;;;;;;;;5001596;28;20378;-73
2023/07/15 11:16:58;;;;;;;2.90;1.90;;;;;;;;;;5012233;28;20045;-73
2023/07/15 11:19:27;;;;;;;2.15;1.83;;;;;;;;;;5016129;28;20035;-73
2023/07/15 11:21:53;;;;;;;3.13;1.83;;;;;;;;;;5013944;28;20050;-73
2023/07/15 11:24:21;;;;;;;5.45;2.13;;;;;;;;;;5013546;28;20032;-73
2023/07/15 11:26:47;;;;;;;2.67;2.08;;;;;;;;;;5016784;28;20104;-73
2023/07/15 11:29:23;;;;;;;5.28;1.90;;;;;;;;;;5027754;28;20112;-73
2023/07/15 11:31:56;;;;;;;3.38;1.90;;;;;;;;;;5018538;28;20116;-73
2023/07/15 11:34:22;;;;;;;;;;;;;;;;;;5016300;28;20022;-72
2023/07/15 11:36:50;;;;;;;2.08;1.98;;;;;;;;;;5012882;28;19914;-72
2023/07/15 11:39:16;;;;;;;8.55;2.40;;;;;;;;;;5005545;28;20492;-73
2023/07/15 11:41:43;;;;;;;2.15;1.95;;;;;;;;;;5016213;28;20026;-73
2023/07/15 11:44:14;;;;;;;3.00;2.05;;;;;;;;;;5024528;28;20502;-73
2023/07/15 11:46:46;;;;;;;2.50;2.25;;;;;;;;;;5024346;28;20056;-75
2023/07/15 11:49:12;;;;;;;2.05;1.90;;;;;;;;;;5010826;28;20073;-75
2023/07/15 11:51:41;;;;;;;2.50;2.30;;;;;;;;;;5013674;28;20105;-74
2023/07/15 11:54:08;;;;;;;2.17;1.85;;;;;;;;;;5016328;28;20073;-75
2023/07/15 11:56:35;;;;;;;2.10;2.00;;;;;;;;;;5011660;28;20084;-74
2023/07/15 11:59:00;;;;;;;2.28;2.17;;;;;;;;;;5000179;28;20028;-75
2023/07/15 12:01:26;;;;;;;1.92;1.83;;;;;;;;;;5011126;28;20081;-74
2023/07/15 12:03:53;;;;;;;2.20;2.00;;;;;;;;;;5015576;28;20029;-74
2023/07/15 12:06:23;;;;;;;2.03;1.90;;;;;;;;;;5011343;28;20473;-74
2023/07/15 12:09:05;;;;;;;2.15;2.05;;;;;;;;;;5011589;28;20026;-74
2023/07/15 12:11:32;;;;;;;1.90;1.80;;;;;;;;;;5013460;28;20486;-74
2023/07/15 12:13:58;;;;;;;2.10;1.90;;;;;;;;;;5013267;28;20018;-74
2023/07/15 12:16:24;;;;;;;2.70;2.00;;;;;;;;;;5017086;28;20136;-74
2023/07/15 12:18:50;;;;;;;2.35;2.15;;;;;;;;;;5012293;28;20029;-74
2023/07/15 12:21:15;;;;;;;2.28;2.08;;;;;;;;;;5025314;28;20137;-74
2023/07/15 12:23:43;;;;;;;2.17;1.98;;;;;;;;;;5015356;28;20029;-75
2023/07/15 12:26:08;;;;;;;1.92;1.83;;;;;;;;;;5019965;28;20033;-74
2023/07/15 12:28:33;;;;;;;3.35;1.98;;;;;;;;;;5020639;28;20491;-74
2023/07/15 12:30:59;;;;;;;2.40;2.10;;;;;;;;;;5027437;28;20086;-74
2023/07/15 12:33:24;;;;;;;2.30;2.10;;;;;;;;;;5020757;28;20018;-74
2023/07/15 12:35:50;;;;;;;2.33;2.13;;;;;;;;;;5020128;28;20405;-75
2023/07/15 12:38:15;;;;;;;2.88;2.33;;;;;;;;;;5017660;28;20401;-75
2023/07/15 12:40:41;;;;;;;3.33;2.20;;;;;;;;;;5017168;28;20026;-74
2023/07/15 12:43:06;;;;;;;2.05;1.92;;;;;;;;;;5011139;28;20273;-74
2023/07/15 12:45:31;;;;;;;2.40;2.20;;;;;;;;;;5015648;28;20429;-74
2023/07/15 12:47:57;;;;;;;2.63;2.20;;;;;;;;;;5019984;28;20111;-74
2023/07/15 12:50:22;;;;;;;3.67;2.07;;;;;;;;;;5010700;28;20117;-74
2023/07/15 12:52:47;;;;;;;3.42;2.08;;;;;;;;;;5020099;28;20272;-74
2023/07/15 12:55:13;;;;;;;2.55;2.35;;;;;;;;;;5009459;28;20021;-74
2023/07/15 12:57:38;;;;;;;2.40;2.20;;;;;;;;;;5014076;28;20548;-74
2023/07/15 13:00:05;;;;;;;2.13;2.00;;;;;;;;;;5015657;28;20429;-74
2023/07/15 13:02:31;;;;;;;3.78;2.30;;;;;;;;;;5017845;28;20255;-74
2023/07/15 13:04:56;;;;;;;2.22;2.10;;;;;;;;;;5011103;28;20084;-75
2023/07/15 13:07:21;;;;;;;3.25;2.20;;;;;;;;;;5018309;28;20116;-75
2023/07/15 13:09:47;;;;;;;4.37;2.20;;;;;;;;;;5016753;28;20116;-75
2023/07/15 13:12:12;;;;;;;2.13;1.98;;;;;;;;;;5016756;28;20319;-75
2023/07/15 13:14:37;;;;;;;3.97;2.10;;;;;;;;;;5010335;28;20496;-74
2023/07/15 13:17:03;;;;;;;4.38;2.33;;;;;;;;;;5011723;28;20280;-74
2023/07/15 13:19:29;;;;;;;2.50;2.30;;;;;;;;;;5014277;28;20049;-74
2023/07/15 13:21:55;;;;;;;2.50;2.30;;;;;;;;;;5014432;28;20389;-75
2023/07/15 13:24:24;;;;;;;2.00;1.90;;;;;;;;;;5018007;28;20021;-74
2023/07/15 13:26:49;;;;;;;2.03;1.92;;;;;;;;;;5012265;28;20304;-75
2023/07/15 13:29:15;;;;;;;2.20;2.10;;;;;;;;;;5017752;28;20415;-74
2023/07/15 13:31:40;;;;;;;3.00;2.50;;;;;;;;;;5023195;28;20050;-75
2023/07/15 13:34:05;;;;;;;2.23;2.13;;;;;;;;;;5010131;28;20500;-74
2023/07/15 13:36:31;;;;;;;2.38;2.28;;;;;;;;;;5012351;28;20277;-74
2023/07/15 13:38:56;;;;;;;2.13;1.97;;;;;;;;;;5017253;28;20439;-74
2023/07/15 13:41:21;;;;;;;2.23;2.03;;;;;;;;;;5011437;28;20264;-74
2023/07/15 13:43:47;;;;;;;3.42;2.15;;;;;;;;;;5013330;28;20261;-74
2023/07/15 13:46:12;;;;;;;3.30;2.00;;;;;;;;;;5011776;28;20026;-75
2023/07/15 13:48:38;;;;;;;9.85;2.35;;;;;;;;;;5020595;28;20404;-74
2023/07/15 13:51:03;;;;;;;2.30;2.20;;;;;;;;;;5009473;28;20037;-75
2023/07/15 13:53:28;;;;;;;2.10;2.00;;;;;;;;;;5016947;28;20076;-74
2023/07/15 13:55:54;;;;;;;3.42;2.20;;;;;;;;;;5017129;28;20060;-74
2023/07/15 13:58:19;;;;;;;2.35;2.15;;;;;;;;;;5016037;28;20061;-74
2023/07/15 14:00:44;;;;;;;2.58;2.03;;;;;;;;;;5009452;28;20109;-74
2023/07/15 14:03:10;;;;;;;2.90;2.33;;;;;;;;;;5011542;28;20436;-74
2023/07/15 14:05:35;;;;;;;6.10;2.10;;;;;;;;;;5009657;28;20048;-74
2023/07/15 14:08:00;;;;;;;2.05;1.90;;;;;;;;;;5013700;28;20048;-74
2023/07/15 14:10:26;;;;;;;2.50;2.30;;;;;;;;;;5009022;28;20198;-74
2023/07/15 14:12:52;;;;;;;2.00;1.90;;;;;;;;;;5011057;28;20025;-74
2023/07/15 14:15:17;;;;;;;2.80;2.17;;;;;;;;;;5011436;28;20018;-74
2023/07/15 14:17:43;;;;;;;2.20;2.10;;;;;;;;;;5012443;28;20060;-74
2023/07/15 14:20:09;;;;;;;1.92;1.83;;;;;;;;;;5015665;28;20029;-74
2023/07/15 14:22:34;;;;;;;2.15;2.03;;;;;;;;;;5011659;28;20036;-74
2023/07/15 14:25:00;;;;;;;2.67;2.20;;;;;;;;;;5011313;28;20057;-74
2023/07/15 14:27:25;;;;;;;2.33;2.10;;;;;;;;;;5014227;28;20096;-73
2023/07/15 14:29:50;;;;;;;2.50;2.30;;;;;;;;;;5023888;28;20112;-74
2023/07/15 14:32:16;;;;;;;2.50;2.10;;;;;;;;;;5022068;28;20031;-74
2023/07/15 14:34:41;;;;;;;2.30;2.20;;;;;;;;;;5010984;28;20022;-74
2023/07/15 14:37:07;;;;;;;2.33;2.17;;;;;;;;;;5008780;28;20133;-74
2023/07/15 14:39:32;;;;;;;2.60;1.98;;;;;;;;;;5012124;28;20468;-74
2023/07/15 14:41:57;;;;;;;3.75;2.17;;;;;;;;;;5015613;28;20021;-74
2023/07/15 14:44:23;;;;;;;3.50;2.00;;;;;;;;;;5015680;28;20393;-74